PWSweather.com
Personal Weather Stations
Station Observations
KMAMEDFI2
Medfield, MA 02052

Medfield, MA 02052

Lat: 42.1900822, Lon: -71.3296889

Elevation: 138

Station Type: Rainwise WS MK-III

http://www.medfieldweather.com

High Low Average
Temperature 52.6°F11.4°C 28.7°F-1.8°C 38.2°F3.4°C
Dew Point 23.1°F-4.9°C 14.0°F-10.0°C 18.8°F-7.3°C
Winds 6.5 mph 10.5 kmh Calm Calm 2.0 mph WSW3.2 kmh WSW
Wind Gusts 16.9 mph27.2 kmh -- 5.0 mph8.0 kmh
Humidity 78% 23% 49%
Pressure 30.08 in1018.6 mb 29.89 in1012.2 mb -
Precipitation 0.00 in0.0 mm - -
Hour Temp Dew Point Humidity Winds Wind Gusts Pressure Precip Precip Rate Daily Precip Total
12:00 AM 28.3°F-2.1°C 24.3°F-4.3°C 85% 0.1 mph WSW0.2 kmh WSW 2.6 mph4.2 kmh 30.06 in1017.9 mb - 0.00 in0.0 mm 0.00 in0.0 mm
12:20 AM 28.8°F-1.8°C 23.7°F-4.6°C 81% 1.3 mph WSW2.1 kmh WSW 2.6 mph4.2 kmh 30.05 in1017.6 mb - 0.00 in0.0 mm 0.00 in0.0 mm
12:30 AM 28.8°F-1.8°C 22.8°F-5.1°C 78% 1.1 mph SW1.8 kmh SW 1.3 mph2.1 kmh 30.05 in1017.6 mb - 0.00 in0.0 mm 0.00 in0.0 mm
12:40 AM 28.9°F-1.7°C 22.2°F-5.4°C 76% 0.8 mph NW1.3 kmh NW 5.2 mph8.4 kmh 30.05 in1017.6 mb - 0.00 in0.0 mm 0.00 in0.0 mm
12:50 AM 29.5°F-1.4°C 21.9°F-5.6°C 73% 0.8 mph N1.3 kmh N 1.3 mph2.1 kmh 30.05 in1017.6 mb - 0.00 in0.0 mm 0.00 in0.0 mm
01:00 AM 29.4°F-1.4°C 21.5°F-5.8°C 72% 1.6 mph NW2.6 kmh NW 3.9 mph6.3 kmh 30.04 in1017.3 mb - 0.00 in0.0 mm 0.00 in0.0 mm
01:10 AM 30.0°F-1.1°C 21.4°F-5.9°C 70% 0.8 mph WSW1.3 kmh WSW 2.6 mph4.2 kmh 30.04 in1017.3 mb - 0.00 in0.0 mm 0.00 in0.0 mm
01:20 AM 30.0°F-1.1°C 21.4°F-5.9°C 70% 2.9 mph W4.7 kmh W 3.9 mph6.3 kmh 30.04 in1017.3 mb - 0.00 in0.0 mm 0.00 in0.0 mm
01:30 AM 30.3°F-0.9°C 20.3°F-6.5°C 66% 2.1 mph NE3.4 kmh NE 6.5 mph10.5 kmh 30.04 in1017.3 mb - 0.00 in0.0 mm 0.00 in0.0 mm
01:40 AM 30.7°F-0.7°C 20.7°F-6.3°C 66% 1.4 mph WNW2.3 kmh WNW 2.6 mph4.2 kmh 30.03 in1016.9 mb - 0.00 in0.0 mm 0.00 in0.0 mm
01:50 AM 31.0°F-0.6°C 20.2°F-6.6°C 64% 2.5 mph N4.0 kmh N 2.6 mph4.2 kmh 30.03 in1016.9 mb - 0.00 in0.0 mm 0.00 in0.0 mm
02:00 AM 31.1°F-0.5°C 20.4°F-6.4°C 64% 3.4 mph WNW5.5 kmh WNW 7.8 mph12.6 kmh 30.03 in1016.9 mb - 0.00 in0.0 mm 0.00 in0.0 mm
02:10 AM 31.3°F-0.4°C 20.5°F-6.4°C 64% 2.8 mph NNW4.5 kmh NNW 7.8 mph12.6 kmh 30.03 in1016.9 mb - 0.00 in0.0 mm 0.00 in0.0 mm
02:20 AM 31.2°F-0.4°C 20.5°F-6.4°C 64% 2.8 mph NNE4.5 kmh NNE 5.2 mph8.4 kmh 30.03 in1016.9 mb - 0.00 in0.0 mm 0.00 in0.0 mm
02:30 AM 31.2°F-0.4°C 20.4°F-6.4°C 64% 2.0 mph SSW3.2 kmh SSW 5.2 mph8.4 kmh 30.03 in1016.9 mb - 0.00 in0.0 mm 0.00 in0.0 mm
02:40 AM 31.0°F-0.6°C 19.9°F-6.7°C 63% 3.0 mph WSW4.8 kmh WSW 7.8 mph12.6 kmh 30.02 in1016.6 mb - 0.00 in0.0 mm 0.00 in0.0 mm
02:50 AM 30.8°F-0.7°C 19.3°F-7.1°C 62% 1.9 mph W3.1 kmh W 2.6 mph4.2 kmh 30.02 in1016.6 mb - 0.00 in0.0 mm 0.00 in0.0 mm
03:00 AM 30.9°F-0.6°C 19.8°F-6.8°C 63% 1.6 mph WNW2.6 kmh WNW 5.2 mph8.4 kmh 30.02 in1016.6 mb - 0.00 in0.0 mm 0.00 in0.0 mm
03:10 AM 30.9°F-0.6°C 19.4°F-7.0°C 62% 2.8 mph WNW4.5 kmh WNW 3.9 mph6.3 kmh 30.01 in1016.3 mb - 0.00 in0.0 mm 0.00 in0.0 mm
03:20 AM 31.3°F-0.4°C 19.7°F-6.8°C 62% 1.9 mph W3.1 kmh W 5.2 mph8.4 kmh 30.01 in1016.3 mb - 0.00 in0.0 mm 0.00 in0.0 mm
03:30 AM 31.2°F-0.4°C 19.3°F-7.1°C 61% 3.2 mph SW5.1 kmh SW 2.6 mph4.2 kmh 30.01 in1016.3 mb - 0.00 in0.0 mm 0.00 in0.0 mm
03:40 AM 31.1°F-0.5°C 19.2°F-7.1°C 61% 2.2 mph NW3.5 kmh NW 5.2 mph8.4 kmh 30.01 in1016.3 mb - 0.00 in0.0 mm 0.00 in0.0 mm
03:50 AM 31.0°F-0.6°C 18.7°F-7.4°C 60% 2.5 mph NW4.0 kmh NW 5.2 mph8.4 kmh 30.01 in1016.3 mb - 0.00 in0.0 mm 0.00 in0.0 mm
04:00 AM 30.8°F-0.7°C 18.9°F-7.3°C 61% 3.4 mph WSW5.5 kmh WSW 6.5 mph10.5 kmh 30.01 in1016.3 mb - 0.00 in0.0 mm 0.00 in0.0 mm
04:10 AM 30.5°F-0.8°C 19.0°F-7.2°C 62% 1.9 mph WNW3.1 kmh WNW 5.2 mph8.4 kmh 30.01 in1016.3 mb - 0.00 in0.0 mm 0.00 in0.0 mm
04:20 AM 30.0°F-1.1°C 18.9°F-7.3°C 63% 2.3 mph W3.7 kmh W 2.6 mph4.2 kmh 30.01 in1016.3 mb - 0.00 in0.0 mm 0.00 in0.0 mm
04:30 AM 29.8°F-1.2°C 19.1°F-7.2°C 64% 2.6 mph SW4.2 kmh SW 3.9 mph6.3 kmh 30.01 in1016.3 mb - 0.00 in0.0 mm 0.00 in0.0 mm
04:40 AM 29.6°F-1.3°C 19.2°F-7.1°C 65% 2.6 mph WSW4.2 kmh WSW 9.1 mph14.6 kmh 30.01 in1016.3 mb - 0.00 in0.0 mm 0.00 in0.0 mm
04:50 AM 29.8°F-1.2°C 18.7°F-7.4°C 63% 2.3 mph SW3.7 kmh SW 5.2 mph8.4 kmh 30.01 in1016.3 mb - 0.00 in0.0 mm 0.00 in0.0 mm
05:00 AM 29.8°F-1.2°C 18.7°F-7.4°C 63% 1.8 mph WNW2.9 kmh WNW 6.5 mph10.5 kmh 30.01 in1016.3 mb - 0.00 in0.0 mm 0.00 in0.0 mm
05:10 AM 29.6°F-1.3°C 18.9°F-7.3°C 64% 1.8 mph WNW2.9 kmh WNW 7.8 mph12.6 kmh 30.01 in1016.3 mb - 0.00 in0.0 mm 0.00 in0.0 mm
05:20 AM 29.8°F-1.2°C 19.1°F-7.2°C 64% 1.2 mph WSW1.9 kmh WSW 9.1 mph14.6 kmh 30.01 in1016.3 mb - 0.00 in0.0 mm 0.00 in0.0 mm
05:30 AM 29.6°F-1.3°C 18.9°F-7.3°C 64% 2.1 mph W3.4 kmh W 5.2 mph8.4 kmh 30.02 in1016.6 mb - 0.00 in0.0 mm 0.00 in0.0 mm
05:40 AM 29.6°F-1.3°C 18.5°F-7.5°C 63% 1.4 mph NW2.3 kmh NW 5.2 mph8.4 kmh 30.02 in1016.6 mb - 0.00 in0.0 mm 0.00 in0.0 mm
05:50 AM 29.5°F-1.4°C 18.8°F-7.3°C 64% 0.9 mph N1.4 kmh N 2.6 mph4.2 kmh 30.02 in1016.6 mb - 0.00 in0.0 mm 0.00 in0.0 mm
06:00 AM 29.6°F-1.3°C 18.1°F-7.7°C 62% 3.5 mph NW5.6 kmh NW 6.5 mph10.5 kmh 30.02 in1016.6 mb - 0.00 in0.0 mm 0.00 in0.0 mm
06:10 AM 29.5°F-1.4°C 18.5°F-7.5°C 63% 1.7 mph NW2.7 kmh NW 7.8 mph12.6 kmh 30.02 in1016.6 mb - 0.00 in0.0 mm 0.00 in0.0 mm
06:20 AM 30.1°F-1.1°C 18.3°F-7.6°C 61% 4.0 mph WNW6.4 kmh WNW 6.5 mph10.5 kmh 30.02 in1016.6 mb - 0.00 in0.0 mm 0.00 in0.0 mm
06:30 AM 30.0°F-1.1°C 18.5°F-7.5°C 62% 1.8 mph W2.9 kmh W 3.9 mph6.3 kmh 30.02 in1016.6 mb - 0.00 in0.0 mm 0.00 in0.0 mm
06:40 AM 29.6°F-1.3°C 18.5°F-7.5°C 63% 1.1 mph NW1.8 kmh NW 3.9 mph6.3 kmh 30.03 in1016.9 mb - 0.00 in0.0 mm 0.00 in0.0 mm
06:50 AM 29.5°F-1.4°C 18.0°F-7.8°C 62% 2.3 mph NW3.7 kmh NW 5.2 mph8.4 kmh 30.03 in1016.9 mb - 0.00 in0.0 mm 0.00 in0.0 mm
07:00 AM 29.6°F-1.3°C 17.8°F-7.9°C 61% 1.2 mph NW1.9 kmh NW 2.6 mph4.2 kmh 30.03 in1016.9 mb - 0.00 in0.0 mm 0.00 in0.0 mm
07:10 AM 29.6°F-1.3°C 17.8°F-7.9°C 61% 2.9 mph NE4.7 kmh NE 5.2 mph8.4 kmh 30.03 in1016.9 mb - 0.00 in0.0 mm 0.00 in0.0 mm
07:20 AM 29.4°F-1.4°C 17.9°F-7.8°C 62% 1.5 mph WNW2.4 kmh WNW 5.2 mph8.4 kmh 30.03 in1016.9 mb - 0.00 in0.0 mm 0.00 in0.0 mm
07:30 AM 30.0°F-1.1°C 17.8°F-7.9°C 60% 1.9 mph W3.1 kmh W 2.6 mph4.2 kmh 30.03 in1016.9 mb - 0.00 in0.0 mm 0.00 in0.0 mm
07:40 AM 30.2°F-1.0°C 17.6°F-8.0°C 59% 1.8 mph WSW2.9 kmh WSW 2.6 mph4.2 kmh 30.03 in1016.9 mb - 0.00 in0.0 mm 0.00 in0.0 mm
07:50 AM 30.9°F-0.6°C 17.8°F-7.9°C 58% 2.5 mph NNE4.0 kmh NNE 2.6 mph4.2 kmh 30.04 in1017.3 mb - 0.00 in0.0 mm 0.00 in0.0 mm
08:00 AM 31.7°F-0.2°C 18.2°F-7.7°C 57% 3.1 mph NW5.0 kmh NW 5.2 mph8.4 kmh 30.03 in1016.9 mb - 0.00 in0.0 mm 0.00 in0.0 mm
08:10 AM 32.6°F0.3°C 18.2°F-7.7°C 55% 2.4 mph NW3.9 kmh NW 5.2 mph8.4 kmh 30.03 in1016.9 mb - 0.00 in0.0 mm 0.00 in0.0 mm
08:20 AM 33.4°F0.8°C 18.1°F-7.7°C 53% 1.5 mph NW2.4 kmh NW 2.6 mph4.2 kmh 30.04 in1017.3 mb - 0.00 in0.0 mm 0.00 in0.0 mm
08:30 AM 34.3°F1.3°C 19.0°F-7.2°C 53% 1.4 mph WSW2.3 kmh WSW 5.2 mph8.4 kmh 30.04 in1017.3 mb - 0.00 in0.0 mm 0.00 in0.0 mm
08:40 AM 35.7°F2.1°C 17.4°F-8.1°C 47% 2.8 mph W4.5 kmh W 2.6 mph4.2 kmh 30.04 in1017.3 mb - 0.00 in0.0 mm 0.00 in0.0 mm
08:50 AM 37.1°F2.8°C 18.2°F-7.7°C 46% 1.8 mph NE2.9 kmh NE 7.8 mph12.6 kmh 30.05 in1017.6 mb - 0.00 in0.0 mm 0.00 in0.0 mm
09:00 AM 38.0°F3.3°C 18.0°F-7.8°C 44% 4.7 mph SSW7.6 kmh SSW 7.8 mph12.6 kmh 30.05 in1017.6 mb - 0.00 in0.0 mm 0.00 in0.0 mm
09:10 AM 38.8°F3.8°C 18.2°F-7.7°C 43% 4.0 mph N6.4 kmh N 9.1 mph14.6 kmh 30.05 in1017.6 mb - 0.00 in0.0 mm 0.00 in0.0 mm
09:20 AM 39.4°F4.1°C 18.2°F-7.7°C 42% 5.1 mph NW8.2 kmh NW 7.8 mph12.6 kmh 30.06 in1017.9 mb - 0.00 in0.0 mm 0.00 in0.0 mm
09:30 AM 40.6°F4.8°C 18.1°F-7.7°C 40% 4.8 mph N7.7 kmh N 16.9 mph27.2 kmh 30.07 in1018.3 mb - 0.00 in0.0 mm 0.00 in0.0 mm
09:40 AM 40.7°F4.8°C 17.0°F-8.3°C 38% 4.5 mph N7.2 kmh N 14.3 mph23.0 kmh 30.07 in1018.3 mb - 0.00 in0.0 mm 0.00 in0.0 mm
09:50 AM 41.2°F5.1°C 16.9°F-8.4°C 37% 4.4 mph E7.1 kmh E 7.8 mph12.6 kmh 30.08 in1018.6 mb - 0.00 in0.0 mm 0.00 in0.0 mm
10:00 AM 41.5°F5.3°C 17.1°F-8.3°C 37% 4.6 mph E7.4 kmh E 5.2 mph8.4 kmh 30.07 in1018.3 mb - 0.00 in0.0 mm 0.00 in0.0 mm
10:10 AM 41.6°F5.3°C 16.6°F-8.6°C 36% 5.6 mph NW9.0 kmh NW 11.7 mph18.8 kmh 30.08 in1018.6 mb - 0.00 in0.0 mm 0.00 in0.0 mm
10:20 AM 42.1°F5.6°C 17.0°F-8.3°C 36% 4.3 mph NW6.9 kmh NW 14.3 mph23.0 kmh 30.08 in1018.6 mb - 0.00 in0.0 mm 0.00 in0.0 mm
10:30 AM 42.7°F5.9°C 17.5°F-8.1°C 36% 4.2 mph WNW6.8 kmh WNW 15.6 mph25.1 kmh 30.08 in1018.6 mb - 0.00 in0.0 mm 0.00 in0.0 mm
10:40 AM 42.6°F5.9°C 16.8°F-8.4°C 35% 3.4 mph ESE5.5 kmh ESE 5.2 mph8.4 kmh 30.08 in1018.6 mb - 0.00 in0.0 mm 0.00 in0.0 mm
10:50 AM 43.0°F6.1°C 18.5°F-7.5°C 37% 3.0 mph E4.8 kmh E 14.3 mph23.0 kmh 30.08 in1018.6 mb - 0.00 in0.0 mm 0.00 in0.0 mm
11:00 AM 43.8°F6.6°C 17.9°F-7.8°C 35% 5.0 mph E8.0 kmh E 10.4 mph16.7 kmh 30.08 in1018.6 mb - 0.00 in0.0 mm 0.00 in0.0 mm
11:10 AM 44.4°F6.9°C 18.4°F-7.6°C 35% 5.5 mph W8.9 kmh W 9.1 mph14.6 kmh 30.08 in1018.6 mb - 0.00 in0.0 mm 0.00 in0.0 mm
11:20 AM 44.8°F7.1°C 17.4°F-8.1°C 33% 5.9 mph SE9.5 kmh SE 7.8 mph12.6 kmh 30.07 in1018.3 mb - 0.00 in0.0 mm 0.00 in0.0 mm
11:30 AM 45.1°F7.3°C 19.1°F-7.2°C 35% 4.6 mph NNE7.4 kmh NNE 9.1 mph14.6 kmh 30.08 in1018.6 mb - 0.00 in0.0 mm 0.00 in0.0 mm
11:40 AM 45.8°F7.7°C 19.6°F-6.9°C 35% 3.7 mph NW6.0 kmh NW 9.1 mph14.6 kmh 30.07 in1018.3 mb - 0.00 in0.0 mm 0.00 in0.0 mm
11:50 AM 46.1°F7.8°C 19.3°F-7.1°C 34% 6.3 mph WNW10.1 kmh WNW 11.7 mph18.8 kmh 30.07 in1018.3 mb - 0.00 in0.0 mm 0.00 in0.0 mm
12:00 PM 46.4°F8.0°C 19.5°F-6.9°C 34% 1.7 mph ESE2.7 kmh ESE 7.8 mph12.6 kmh 30.07 in1018.3 mb - 0.00 in0.0 mm 0.00 in0.0 mm
12:10 PM 47.4°F8.6°C 19.7°F-6.8°C 33% 2.6 mph NE4.2 kmh NE 9.1 mph14.6 kmh 30.06 in1017.9 mb - 0.00 in0.0 mm 0.00 in0.0 mm
12:20 PM 47.9°F8.8°C 19.4°F-7.0°C 32% 2.5 mph WSW4.0 kmh WSW 9.1 mph14.6 kmh 30.06 in1017.9 mb - 0.00 in0.0 mm 0.00 in0.0 mm
12:30 PM 48.1°F8.9°C 19.6°F-6.9°C 32% 4.2 mph NW6.8 kmh NW 10.4 mph16.7 kmh 30.05 in1017.6 mb - 0.00 in0.0 mm 0.00 in0.0 mm
12:40 PM 48.2°F9.0°C 18.2°F-7.7°C 30% 2.9 mph ESE4.7 kmh ESE 2.6 mph4.2 kmh 30.05 in1017.6 mb - 0.00 in0.0 mm 0.00 in0.0 mm
12:50 PM 48.5°F9.2°C 19.9°F-6.7°C 32% 2.5 mph WNW4.0 kmh WNW 7.8 mph12.6 kmh 30.05 in1017.6 mb - 0.00 in0.0 mm 0.00 in0.0 mm
01:00 PM 49.0°F9.4°C 19.6°F-6.9°C 31% 3.6 mph N5.8 kmh N 9.1 mph14.6 kmh 30.04 in1017.3 mb - 0.00 in0.0 mm 0.00 in0.0 mm
01:10 PM 49.0°F9.4°C 20.3°F-6.5°C 32% 4.0 mph NNW6.4 kmh NNW 7.8 mph12.6 kmh 30.04 in1017.3 mb - 0.00 in0.0 mm 0.00 in0.0 mm
01:20 PM 49.9°F9.9°C 19.7°F-6.8°C 30% 3.9 mph NE6.3 kmh NE 9.1 mph14.6 kmh 30.03 in1016.9 mb - 0.00 in0.0 mm 0.00 in0.0 mm
01:30 PM 50.6°F10.3°C 19.4°F-7.0°C 29% 2.2 mph NNE3.5 kmh NNE 2.6 mph4.2 kmh 30.03 in1016.9 mb - 0.00 in0.0 mm 0.00 in0.0 mm
01:40 PM 50.4°F10.2°C 20.0°F-6.7°C 30% 3.3 mph W5.3 kmh W 7.8 mph12.6 kmh 30.03 in1016.9 mb - 0.00 in0.0 mm 0.00 in0.0 mm
01:50 PM 50.5°F10.3°C 19.4°F-7.0°C 29% 4.4 mph WSW7.1 kmh WSW 10.4 mph16.7 kmh 30.03 in1016.9 mb - 0.00 in0.0 mm 0.00 in0.0 mm
02:00 PM 50.4°F10.2°C 19.3°F-7.1°C 29% 3.5 mph WSW5.6 kmh WSW 7.8 mph12.6 kmh 30.03 in1016.9 mb - 0.00 in0.0 mm 0.00 in0.0 mm
02:10 PM 50.3°F10.2°C 18.4°F-7.6°C 28% 3.9 mph WNW6.3 kmh WNW 7.8 mph12.6 kmh 30.02 in1016.6 mb - 0.00 in0.0 mm 0.00 in0.0 mm
02:20 PM 50.9°F10.5°C 19.7°F-6.8°C 29% 2.8 mph SSW4.5 kmh SSW 2.6 mph4.2 kmh 30.02 in1016.6 mb - 0.00 in0.0 mm 0.00 in0.0 mm
02:30 PM 51.2°F10.7°C 19.1°F-7.2°C 28% 3.2 mph N5.1 kmh N 7.8 mph12.6 kmh 30.01 in1016.3 mb - 0.00 in0.0 mm 0.00 in0.0 mm
02:40 PM 51.2°F10.7°C 19.2°F-7.1°C 28% 3.7 mph W6.0 kmh W 11.7 mph18.8 kmh 30.01 in1016.3 mb - 0.00 in0.0 mm 0.00 in0.0 mm
02:50 PM 51.2°F10.7°C 18.3°F-7.6°C 27% 5.6 mph WNW9.0 kmh WNW 11.7 mph18.8 kmh 30.01 in1016.3 mb - 0.00 in0.0 mm 0.00 in0.0 mm
03:00 PM 51.7°F10.9°C 17.8°F-7.9°C 26% 3.4 mph NNW5.5 kmh NNW 14.3 mph23.0 kmh 30.01 in1016.3 mb - 0.00 in0.0 mm 0.00 in0.0 mm
03:10 PM 51.0°F10.6°C 17.2°F-8.2°C 26% 3.2 mph E5.1 kmh E 3.9 mph6.3 kmh 30.00 in1015.9 mb - 0.00 in0.0 mm 0.00 in0.0 mm
03:20 PM 51.4°F10.8°C 17.6°F-8.0°C 26% 4.3 mph WNW6.9 kmh WNW 7.8 mph12.6 kmh 30.00 in1015.9 mb - 0.00 in0.0 mm 0.00 in0.0 mm
03:30 PM 51.7°F10.9°C 17.8°F-7.9°C 26% 4.0 mph WNW6.4 kmh WNW 10.4 mph16.7 kmh 30.00 in1015.9 mb - 0.00 in0.0 mm 0.00 in0.0 mm
03:40 PM 51.7°F10.9°C 16.9°F-8.4°C 25% 5.0 mph WSW8.0 kmh WSW 9.1 mph14.6 kmh 30.00 in1015.9 mb - 0.00 in0.0 mm 0.00 in0.0 mm
03:50 PM 51.7°F10.9°C 16.9°F-8.4°C 25% 3.2 mph SW5.1 kmh SW 6.5 mph10.5 kmh 30.00 in1015.9 mb - 0.00 in0.0 mm 0.00 in0.0 mm
04:00 PM 51.3°F10.7°C 17.5°F-8.1°C 26% 2.2 mph N3.5 kmh N 2.6 mph4.2 kmh 30.00 in1015.9 mb - 0.00 in0.0 mm 0.00 in0.0 mm
04:10 PM 50.9°F10.5°C 17.1°F-8.3°C 26% 6.5 mph W10.5 kmh W 11.7 mph18.8 kmh 30.00 in1015.9 mb - 0.00 in0.0 mm 0.00 in0.0 mm
04:20 PM 50.8°F10.4°C 17.1°F-8.3°C 26% 2.0 mph WSW3.2 kmh WSW 5.2 mph8.4 kmh 30.00 in1015.9 mb - 0.00 in0.0 mm 0.00 in0.0 mm
04:30 PM 52.3°F11.3°C 15.5°F-9.2°C 23% 4.8 mph WSW7.7 kmh WSW 10.4 mph16.7 kmh 30.00 in1015.9 mb - 0.00 in0.0 mm 0.00 in0.0 mm
04:40 PM 51.3°F10.7°C 15.7°F-9.1°C 24% 3.7 mph NW6.0 kmh NW 11.7 mph18.8 kmh 30.00 in1015.9 mb - 0.00 in0.0 mm 0.00 in0.0 mm
04:50 PM 51.9°F11.1°C 16.1°F-8.8°C 24% 4.1 mph W6.6 kmh W 6.5 mph10.5 kmh 30.00 in1015.9 mb - 0.00 in0.0 mm 0.00 in0.0 mm
05:00 PM 51.7°F10.9°C 16.0°F-8.9°C 24% 3.2 mph SW5.1 kmh SW 2.6 mph4.2 kmh 30.00 in1015.9 mb - 0.00 in0.0 mm 0.00 in0.0 mm
05:10 PM 51.7°F10.9°C 16.9°F-8.4°C 25% 0.5 mph W0.8 kmh W 2.6 mph4.2 kmh 29.99 in1015.6 mb - 0.00 in0.0 mm 0.00 in0.0 mm
05:20 PM 51.6°F10.9°C 16.0°F-8.9°C 24% 1.5 mph N2.4 kmh N 3.9 mph6.3 kmh 29.99 in1015.6 mb - 0.00 in0.0 mm 0.00 in0.0 mm
05:30 PM 51.6°F10.9°C 17.8°F-7.9°C 26% 0.2 mph SW0.3 kmh SW 2.6 mph4.2 kmh 29.99 in1015.6 mb - 0.00 in0.0 mm 0.00 in0.0 mm
05:40 PM 52.0°F11.1°C 17.2°F-8.2°C 25% 0.4 mph NW0.6 kmh NW 2.6 mph4.2 kmh 29.99 in1015.6 mb - 0.00 in0.0 mm 0.00 in0.0 mm
05:50 PM 52.6°F11.4°C 15.8°F-9.0°C 23% 0.3 mph NW0.5 kmh NW -- 29.98 in1015.2 mb - 0.00 in0.0 mm 0.00 in0.0 mm
06:00 PM 51.9°F11.1°C 17.1°F-8.3°C 25% 1.0 mph WNW1.6 kmh WNW 2.6 mph4.2 kmh 29.98 in1015.2 mb - 0.00 in0.0 mm 0.00 in0.0 mm
06:10 PM 49.9°F9.9°C 20.4°F-6.4°C 31% Calm Calm 1.3 mph2.1 kmh 29.98 in1015.2 mb - 0.00 in0.0 mm 0.00 in0.0 mm
06:20 PM 47.2°F8.4°C 15.7°F-9.1°C 28% 0.6 mph NNW1.0 kmh NNW 1.3 mph2.1 kmh 29.98 in1015.2 mb - 0.00 in0.0 mm 0.00 in0.0 mm
06:30 PM 45.5°F7.5°C 15.0°F-9.4°C 29% 1.0 mph NNW1.6 kmh NNW 2.6 mph4.2 kmh 29.97 in1014.9 mb - 0.00 in0.0 mm 0.00 in0.0 mm
06:40 PM 43.9°F6.6°C 14.4°F-9.8°C 30% Calm Calm -- 29.96 in1014.6 mb - 0.00 in0.0 mm 0.00 in0.0 mm
06:50 PM 41.7°F5.4°C 14.0°F-10.0°C 32% Calm Calm -- 29.96 in1014.6 mb - 0.00 in0.0 mm 0.00 in0.0 mm
07:00 PM 39.9°F4.4°C 15.1°F-9.4°C 36% Calm Calm -- 29.96 in1014.6 mb - 0.00 in0.0 mm 0.00 in0.0 mm
07:10 PM 38.9°F3.8°C 15.4°F-9.2°C 38% Calm Calm -- 29.95 in1014.2 mb - 0.00 in0.0 mm 0.00 in0.0 mm
07:20 PM 39.1°F3.9°C 18.5°F-7.5°C 43% Calm Calm -- 29.94 in1013.9 mb - 0.00 in0.0 mm 0.00 in0.0 mm
07:30 PM 38.5°F3.6°C 21.0°F-6.1°C 49% 0.3 mph NNW0.5 kmh NNW 2.6 mph4.2 kmh 29.94 in1013.9 mb - 0.00 in0.0 mm 0.00 in0.0 mm
07:40 PM 37.4°F3.0°C 23.1°F-4.9°C 56% Calm Calm -- 29.94 in1013.9 mb - 0.00 in0.0 mm 0.00 in0.0 mm
07:50 PM 35.4°F1.9°C 19.0°F-7.2°C 51% Calm Calm -- 29.94 in1013.9 mb - 0.00 in0.0 mm 0.00 in0.0 mm
08:00 PM 34.8°F1.6°C 18.5°F-7.5°C 51% Calm Calm -- 29.94 in1013.9 mb - 0.00 in0.0 mm 0.00 in0.0 mm
08:10 PM 35.0°F1.7°C 19.1°F-7.2°C 52% Calm Calm -- 29.94 in1013.9 mb - 0.00 in0.0 mm 0.00 in0.0 mm
08:20 PM 34.3°F1.3°C 19.0°F-7.2°C 53% Calm Calm 1.3 mph2.1 kmh 29.94 in1013.9 mb - 0.00 in0.0 mm 0.00 in0.0 mm
08:30 PM 33.7°F0.9°C 22.8°F-5.1°C 64% Calm Calm -- 29.94 in1013.9 mb - 0.00 in0.0 mm 0.00 in0.0 mm
08:40 PM 33.3°F0.7°C 21.7°F-5.7°C 62% Calm Calm -- 29.93 in1013.5 mb - 0.00 in0.0 mm 0.00 in0.0 mm
08:50 PM 32.5°F0.3°C 21.0°F-6.1°C 62% Calm Calm -- 29.94 in1013.9 mb - 0.00 in0.0 mm 0.00 in0.0 mm
09:00 PM 32.3°F0.2°C 20.7°F-6.3°C 62% Calm Calm -- 29.93 in1013.5 mb - 0.00 in0.0 mm 0.00 in0.0 mm
09:10 PM 31.3°F-0.4°C 21.6°F-5.8°C 67% Calm Calm -- 29.93 in1013.5 mb - 0.00 in0.0 mm 0.00 in0.0 mm
09:20 PM 30.3°F-0.9°C 19.6°F-6.9°C 64% Calm Calm -- 29.92 in1013.2 mb - 0.00 in0.0 mm 0.00 in0.0 mm
09:30 PM 29.8°F-1.2°C 21.2°F-6.0°C 70% Calm Calm -- 29.92 in1013.2 mb - 0.00 in0.0 mm 0.00 in0.0 mm
09:40 PM 29.5°F-1.4°C 20.9°F-6.2°C 70% Calm Calm -- 29.91 in1012.9 mb - 0.00 in0.0 mm 0.00 in0.0 mm
09:50 PM 29.3°F-1.5°C 21.1°F-6.1°C 71% Calm Calm -- 29.91 in1012.9 mb - 0.00 in0.0 mm 0.00 in0.0 mm
10:00 PM 29.3°F-1.5°C 21.4°F-5.9°C 72% Calm Calm -- 29.91 in1012.9 mb - 0.00 in0.0 mm 0.00 in0.0 mm
10:10 PM 28.9°F-1.7°C 21.0°F-6.1°C 72% Calm Calm -- 29.91 in1012.9 mb - 0.00 in0.0 mm 0.00 in0.0 mm
10:20 PM 28.9°F-1.7°C 22.0°F-5.6°C 75% Calm Calm -- 29.91 in1012.9 mb - 0.00 in0.0 mm 0.00 in0.0 mm
10:30 PM 28.7°F-1.8°C 22.7°F-5.2°C 78% Calm Calm -- 29.90 in1012.5 mb - 0.00 in0.0 mm 0.00 in0.0 mm
10:40 PM 29.3°F-1.5°C 22.0°F-5.6°C 74% Calm Calm -- 29.90 in1012.5 mb - 0.00 in0.0 mm 0.00 in0.0 mm
10:50 PM 28.9°F-1.7°C 21.0°F-6.1°C 72% Calm Calm 1.3 mph2.1 kmh 29.91 in1012.9 mb - 0.00 in0.0 mm 0.00 in0.0 mm
11:00 PM 30.7°F-0.7°C 21.4°F-5.9°C 68% 2.1 mph W3.4 kmh W 2.6 mph4.2 kmh 29.91 in1012.9 mb - 0.00 in0.0 mm 0.00 in0.0 mm
11:10 PM 30.8°F-0.7°C 21.1°F-6.1°C 67% 1.2 mph W1.9 kmh W 2.6 mph4.2 kmh 29.91 in1012.9 mb - 0.00 in0.0 mm 0.00 in0.0 mm
11:20 PM 30.6°F-0.8°C 19.5°F-6.9°C 63% 0.2 mph W0.3 kmh W 1.3 mph2.1 kmh 29.91 in1012.9 mb - 0.00 in0.0 mm 0.00 in0.0 mm
11:30 PM 30.7°F-0.7°C 19.2°F-7.1°C 62% 0.1 mph W0.2 kmh W 2.6 mph4.2 kmh 29.91 in1012.9 mb - 0.00 in0.0 mm 0.00 in0.0 mm
11:40 PM 30.9°F-0.6°C 19.8°F-6.8°C 63% 0.5 mph W0.8 kmh W 2.6 mph4.2 kmh 29.90 in1012.5 mb - 0.00 in0.0 mm 0.00 in0.0 mm
11:50 PM 30.8°F-0.7°C 21.5°F-5.8°C 68% Calm Calm -- 29.90 in1012.5 mb - 0.00 in0.0 mm 0.00 in0.0 mm